Time;durP1;ratioP1;P1;durP2;ratioP2;P2;SDS_P1;SDS_P2;PMS_P1;PMS_P2;Temp;Humidity;BMP_temperature;BMP_pressure;BME280_temperature;BME280_humidity;BME280_pressure;Samples;Min_cycle;Max_cycle;Signal;HPM_P1;HPM_P2
2021/05/06 00:04:16;0.00;0.00;0.62;0.00;0.00;0.62;2.70;1.13;;;24.10;22.40;;;;;;2261129;61;20746;-61
2021/05/06 00:33:33;0.00;0.00;0.62;0.00;0.00;0.62;3.10;1.33;;;23.90;21.90;;;;;;2261582;61;20379;-61
2021/05/06 00:36:00;0.00;0.00;0.62;0.00;0.00;0.62;6.47;1.60;;;23.90;21.90;;;;;;2261755;61;20417;-61
2021/05/06 00:38:35;0.00;0.00;0.62;0.00;0.00;0.62;2.77;1.53;;;23.90;21.90;;;;;;2261689;61;20380;-61
2021/05/06 00:41:35;0.00;0.00;0.62;0.00;0.00;0.62;3.23;1.37;;;23.90;21.90;;;;;;2261722;61;20778;-59
2021/05/06 01:07:59;0.00;0.00;0.62;0.00;0.00;0.62;2.23;1.37;;;23.70;21.70;;;;;;2261033;61;20352;-60
2021/05/06 01:13:16;0.00;0.00;0.62;0.00;0.00;0.62;3.93;1.40;;;23.70;21.70;;;;;;2261021;61;20370;-60
2021/05/06 01:15:44;0.00;0.00;0.62;0.00;0.00;0.62;3.00;1.20;;;23.70;21.70;;;;;;2261487;61;20778;-61
2021/05/06 01:18:10;0.00;0.00;0.62;0.00;0.00;0.62;2.07;1.20;;;23.70;21.60;;;;;;2261618;61;20696;-60
2021/05/06 01:20:43;0.00;0.00;0.62;0.00;0.00;0.62;3.23;1.37;;;23.60;21.60;;;;;;2257926;61;20352;-61
2021/05/06 01:23:10;0.00;0.00;0.62;0.00;0.00;0.62;5.03;1.53;;;23.60;21.50;;;;;;2261556;61;20700;-60
2021/05/06 01:25:37;0.00;0.00;0.62;0.00;0.00;0.62;3.37;1.70;;;23.60;21.50;;;;;;2261048;61;20387;-60
2021/05/06 01:28:09;0.00;0.00;0.62;0.00;0.00;0.62;3.00;1.70;;;23.60;21.50;;;;;;2261692;61;20470;-60
2021/05/06 01:30:44;0.00;0.00;0.62;0.00;0.00;0.62;2.53;1.33;;;23.60;21.50;;;;;;2260993;61;20580;-60
2021/05/06 01:33:39;0.00;0.00;0.62;0.00;0.00;0.62;2.67;1.30;;;23.60;21.50;;;;;;2261086;61;20460;-61
2021/05/06 01:36:06;0.00;0.00;0.62;0.00;0.00;0.62;2.07;1.40;;;23.60;21.50;;;;;;2261476;61;20371;-60
2021/05/06 01:58:01;0.00;0.00;0.62;0.00;0.00;0.62;2.67;1.70;;;23.40;21.40;;;;;;2261425;61;20738;-61
2021/05/06 02:00:40;0.00;0.00;0.62;0.00;0.00;0.62;2.90;1.73;;;23.50;21.40;;;;;;2257657;61;20406;-61
2021/05/06 02:03:18;0.00;0.00;0.62;0.00;0.00;0.62;4.77;1.50;;;23.40;21.40;;;;;;2261832;61;20352;-61
2021/05/06 02:05:48;0.00;0.00;0.62;0.00;0.00;0.62;1.60;1.27;;;23.40;21.40;;;;;;2260954;61;20626;-60
2021/05/06 02:08:15;0.00;0.00;0.62;0.00;0.00;0.62;3.40;1.00;;;23.40;21.40;;;;;;2260863;61;20703;-58
2021/05/06 02:10:46;0.00;0.00;0.62;0.00;0.00;0.62;2.63;1.23;;;23.40;21.30;;;;;;2261057;61;20363;-61
2021/05/06 02:13:17;0.00;0.00;0.62;0.00;0.00;0.62;3.93;1.47;;;23.40;21.30;;;;;;2260995;61;20348;-58
2021/05/06 02:15:53;0.00;0.00;0.62;0.00;0.00;0.62;2.70;1.30;;;23.40;21.30;;;;;;2260655;61;20383;-61
2021/05/06 02:18:21;0.00;0.00;0.62;0.00;0.00;0.62;3.03;1.70;;;23.30;21.30;;;;;;2258035;61;20399;-59
2021/05/06 02:20:48;0.00;0.00;0.62;0.00;0.00;0.62;2.40;1.40;;;23.30;21.20;;;;;;2261320;61;20604;-59
2021/05/06 02:23:16;0.00;0.00;0.62;0.00;0.00;0.62;2.10;1.00;;;23.30;21.30;;;;;;2257319;61;20385;-60
2021/05/06 02:25:44;0.00;0.00;0.62;0.00;0.00;0.62;2.70;1.37;;;23.30;21.40;;;;;;2261580;61;20372;-60
2021/05/06 02:28:10;0.00;0.00;0.62;0.00;0.00;0.62;1.90;1.43;;;23.30;21.40;;;;;;2261458;61;20359;-61
2021/05/06 02:30:38;0.00;0.00;0.62;0.00;0.00;0.62;1.93;1.13;;;23.30;21.30;;;;;;2261228;61;20391;-61
2021/05/06 02:33:07;0.00;0.00;0.62;0.00;0.00;0.62;2.47;1.20;;;23.30;21.30;;;;;;2261008;61;20370;-61
2021/05/06 02:35:35;0.00;0.00;0.62;0.00;0.00;0.62;1.97;1.20;;;23.30;21.40;;;;;;2261248;61;20388;-62
2021/05/06 02:38:03;0.00;0.00;0.62;0.00;0.00;0.62;3.07;1.53;;;23.30;21.50;;;;;;2261286;61;20358;-60
2021/05/06 02:40:30;0.00;0.00;0.62;0.00;0.00;0.62;1.77;1.30;;;23.20;21.30;;;;;;2261669;61;20404;-61
2021/05/06 02:42:57;0.00;0.00;0.62;0.00;0.00;0.62;1.87;1.27;;;23.20;21.30;;;;;;2261339;61;20615;-59
2021/05/06 02:45:23;0.00;0.00;0.62;0.00;0.00;0.62;2.67;1.30;;;23.30;21.40;;;;;;2261138;61;20376;-60
2021/05/06 02:47:50;0.00;0.00;0.62;0.00;0.00;0.62;2.70;1.73;;;23.20;21.60;;;;;;2261824;61;20454;-59
2021/05/06 02:50:21;0.00;0.00;0.62;0.00;0.00;0.62;3.83;1.57;;;23.20;21.30;;;;;;2261251;61;20358;-62
2021/05/06 02:52:58;0.00;0.00;0.62;0.00;0.00;0.62;2.43;1.23;;;23.20;21.40;;;;;;2261242;61;20359;-59
2021/05/06 02:55:39;0.00;0.00;0.62;0.00;0.00;0.62;4.23;1.00;;;23.20;21.30;;;;;;2261451;61;20418;-60
2021/05/06 02:58:19;0.00;0.00;0.62;0.00;0.00;0.62;4.17;1.70;;;23.20;21.30;;;;;;2261229;61;20367;-61
2021/05/06 03:03:40;0.00;0.00;0.62;0.00;0.00;0.62;1.70;1.30;;;23.10;21.30;;;;;;2261688;61;20586;-58
2021/05/06 03:06:06;0.00;0.00;0.62;0.00;0.00;0.62;2.03;1.37;;;23.10;21.40;;;;;;2261144;61;20378;-59
2021/05/06 03:08:39;0.00;0.00;0.62;0.00;0.00;0.62;3.00;1.03;;;23.10;21.30;;;;;;2261592;61;20383;-62
2021/05/06 03:11:34;0.00;0.00;0.62;0.00;0.00;0.62;3.43;1.50;;;23.10;21.30;;;;;;2261311;61;20361;-60
2021/05/06 03:21:04;0.00;0.00;0.62;0.00;0.00;0.62;2.40;1.20;;;23.10;21.30;;;;;;2261202;61;20437;-61
2021/05/06 03:25:17;0.00;0.00;0.62;0.00;0.00;0.62;3.37;1.53;;;23.00;21.30;;;;;;2260924;61;20421;-61
2021/05/06 03:41:37;0.00;0.00;0.62;0.00;0.00;0.62;2.83;1.50;;;23.00;21.20;;;;;;2261917;61;20438;-61
2021/05/06 04:17:17;0.00;0.00;0.62;0.00;0.00;0.62;2.40;1.30;;;22.90;21.20;;;;;;2261909;61;20379;-60
2021/05/06 04:27:23;0.00;0.00;0.62;0.00;0.00;0.62;2.10;1.40;;;22.80;21.10;;;;;;2261938;61;20482;-60
2021/05/06 04:35:38;0.00;0.00;0.62;0.00;0.00;0.62;5.33;1.93;;;22.80;21.10;;;;;;2261444;61;20468;-61
2021/05/06 04:38:06;0.00;0.00;0.62;0.00;0.00;0.62;3.03;1.50;;;22.80;21.20;;;;;;2261624;61;20712;-60
2021/05/06 04:57:01;0.00;0.00;0.62;0.00;0.00;0.62;2.30;1.80;;;22.70;21.00;;;;;;2261773;61;20377;-61
2021/05/06 05:05:00;0.00;0.00;0.62;0.00;0.00;0.62;2.70;1.20;;;22.70;21.10;;;;;;2261318;61;20379;-61
2021/05/06 05:07:38;0.00;0.00;0.62;0.00;0.00;0.62;3.30;1.70;;;22.60;21.10;;;;;;2261746;61;20717;-61
2021/05/06 05:17:47;0.00;0.00;0.62;0.00;0.00;0.62;2.37;1.40;;;22.60;21.20;;;;;;2261690;61;20393;-61
2021/05/06 05:27:57;0.00;0.00;0.62;0.00;0.00;0.62;1.70;1.53;;;22.60;21.20;;;;;;2261590;61;20591;-62
2021/05/06 05:30:25;0.00;0.00;0.62;0.00;0.00;0.62;2.60;1.40;;;22.60;21.20;;;;;;2261204;61;20366;-62
2021/05/06 05:32:52;0.00;0.00;0.62;0.00;0.00;0.62;1.40;1.20;;;22.60;21.30;;;;;;2261554;61;20845;-61
2021/05/06 05:35:32;0.00;0.00;0.62;0.00;0.00;0.62;2.90;1.63;;;22.60;21.30;;;;;;2261178;61;20822;-62
2021/05/06 05:56:35;0.00;0.00;0.62;0.00;0.00;0.62;2.80;1.33;;;22.60;21.30;;;;;;2261297;61;20395;-61
2021/05/06 05:59:03;0.00;0.00;0.62;0.00;0.00;0.62;3.03;1.40;;;22.70;21.40;;;;;;2261556;61;20695;-62
2021/05/06 06:01:29;0.00;0.00;0.62;0.00;0.00;0.62;2.17;1.37;;;22.60;21.30;;;;;;2261457;61;20749;-62
2021/05/06 06:03:56;0.00;0.00;0.62;0.00;0.00;0.62;1.93;1.20;;;22.60;21.40;;;;;;2261390;61;20691;-62
2021/05/06 06:06:22;0.00;0.00;0.62;0.00;0.00;0.62;1.60;1.20;;;22.60;21.40;;;;;;2260822;61;20742;-62
2021/05/06 06:08:50;0.00;0.00;0.62;0.00;0.00;0.62;2.33;1.13;;;22.70;21.50;;;;;;2261425;61;20692;-61
2021/05/06 06:11:17;0.00;0.00;0.62;0.00;0.00;0.62;2.70;1.40;;;22.60;21.40;;;;;;2261397;61;20367;-62
2021/05/06 06:13:45;0.00;0.00;0.62;0.00;0.00;0.62;2.57;1.33;;;22.60;21.90;;;;;;2261118;61;20712;-61
2021/05/06 06:16:18;0.00;0.00;0.62;0.00;0.00;0.62;1.20;0.90;;;22.60;21.40;;;;;;2261417;61;20375;-62
2021/05/06 06:18:48;0.00;0.00;0.62;0.00;0.00;0.62;1.47;1.23;;;22.70;21.40;;;;;;2261459;61;20367;-61
2021/05/06 06:23:45;0.00;0.00;0.62;0.00;0.00;0.62;2.23;1.20;;;22.70;21.40;;;;;;2261276;61;20355;-61
2021/05/06 06:26:13;0.00;0.00;0.62;0.00;0.00;0.62;1.70;1.23;;;22.60;21.30;;;;;;2261376;61;20379;-61
2021/05/06 06:28:42;0.00;0.00;0.62;0.00;0.00;0.62;2.33;1.33;;;22.70;21.40;;;;;;2261429;61;20360;-61
2021/05/06 06:31:32;0.00;0.00;0.62;0.00;0.00;0.62;2.00;1.17;;;22.70;21.40;;;;;;2261292;61;20719;-62
2021/05/06 06:33:58;0.00;0.00;0.62;0.00;0.00;0.62;1.80;1.20;;;22.60;21.30;;;;;;2261266;61;20593;-62
2021/05/06 06:36:25;0.00;0.00;0.62;0.00;0.00;0.62;1.70;1.10;;;22.60;21.30;;;;;;2261281;61;20374;-62
2021/05/06 06:38:53;0.00;0.00;0.62;0.00;0.00;0.62;1.53;0.97;;;22.70;21.40;;;;;;2261317;61;20370;-61
2021/05/06 06:41:20;0.00;0.00;0.62;0.00;0.00;0.62;2.23;1.20;;;22.60;21.30;;;;;;2261425;61;20356;-61
2021/05/06 06:43:50;0.00;0.00;0.62;0.00;0.00;0.62;1.57;1.10;;;22.70;21.30;;;;;;2261174;61;20355;-62
2021/05/06 06:46:17;0.00;0.00;0.62;0.00;0.00;0.62;1.67;1.20;;;22.70;21.30;;;;;;2261369;61;20386;-61
2021/05/06 06:48:43;0.00;0.00;0.62;0.00;0.00;0.62;2.10;1.37;;;22.70;21.40;;;;;;2261279;61;20359;-62
2021/05/06 06:51:11;0.00;0.00;0.62;0.00;0.00;0.62;1.90;1.50;;;22.70;21.40;;;;;;2261288;61;20400;-62
2021/05/06 06:53:38;0.00;0.00;0.62;0.00;0.00;0.62;1.80;1.30;;;22.70;21.40;;;;;;2261051;61;20389;-62
2021/05/06 06:56:05;0.00;0.00;0.62;0.00;0.00;0.62;1.40;1.10;;;22.70;21.30;;;;;;2261129;61;20482;-61
2021/05/06 06:58:33;0.00;0.00;0.62;0.00;0.00;0.62;1.57;1.10;;;22.70;21.40;;;;;;2261385;61;20365;-61
2021/05/06 07:01:00;0.00;0.00;0.62;0.00;0.00;0.62;1.57;1.10;;;22.70;21.30;;;;;;2261392;61;20359;-62
2021/05/06 07:03:27;0.00;0.00;0.62;0.00;0.00;0.62;1.43;0.97;;;22.70;21.40;;;;;;2261130;61;20714;-61
2021/05/06 07:05:53;0.00;0.00;0.62;0.00;0.00;0.62;1.30;0.90;;;22.70;21.40;;;;;;2261027;61;20381;-62
2021/05/06 07:08:23;0.00;0.00;0.62;0.00;0.00;0.62;1.77;1.07;;;22.70;21.40;;;;;;2261424;61;20359;-61
2021/05/06 07:10:53;0.00;0.00;0.62;0.00;0.00;0.62;1.90;1.30;;;22.70;21.30;;;;;;2261073;61;20386;-61
2021/05/06 07:13:20;0.00;0.00;0.62;0.00;0.00;0.62;1.73;1.30;;;22.70;21.40;;;;;;2261256;61;20598;-62
2021/05/06 07:15:49;0.00;0.00;0.62;0.00;0.00;0.62;1.60;1.20;;;22.70;21.40;;;;;;2261112;61;20383;-62
2021/05/06 07:18:16;0.00;0.00;0.62;0.00;0.00;0.62;1.40;0.90;;;22.70;21.40;;;;;;2261145;61;20597;-61
2021/05/06 07:20:44;0.00;0.00;0.62;0.00;0.00;0.62;1.70;1.10;;;22.70;21.40;;;;;;2260781;61;20352;-62
2021/05/06 07:23:12;0.00;0.00;0.62;0.00;0.00;0.62;1.30;0.87;;;22.70;21.40;;;;;;2261202;61;20363;-62
2021/05/06 07:25:39;0.00;0.00;0.62;0.00;0.00;0.62;1.77;1.03;;;22.70;21.40;;;;;;2261016;61;20375;-62
2021/05/06 07:28:11;0.00;0.00;0.62;0.00;0.00;0.62;1.43;1.00;;;22.70;21.30;;;;;;2261385;61;20567;-62
2021/05/06 07:30:38;0.00;0.00;0.62;0.00;0.00;0.62;1.50;0.97;;;22.70;21.40;;;;;;2261447;61;20363;-61
2021/05/06 07:33:05;0.00;0.00;0.62;0.00;0.00;0.62;1.60;0.90;;;22.70;21.40;;;;;;2260961;61;20355;-61
2021/05/06 07:35:32;0.00;0.00;0.62;0.00;0.00;0.62;1.30;0.90;;;22.70;21.40;;;;;;2261098;61;20458;-62
2021/05/06 07:37:59;0.00;0.00;0.62;0.00;0.00;0.62;3.93;1.00;;;22.70;21.30;;;;;;2261265;61;20366;-62
2021/05/06 07:40:26;0.00;0.00;0.62;0.00;0.00;0.62;1.40;1.00;;;22.70;21.40;;;;;;2261289;61;20447;-61
2021/05/06 07:42:53;0.00;0.00;0.62;0.00;0.00;0.62;1.80;1.07;;;22.70;21.40;;;;;;2261417;61;20771;-61
2021/05/06 07:45:20;0.00;0.00;0.62;0.00;0.00;0.62;1.30;0.90;;;22.70;21.30;;;;;;2257309;61;20403;-62
2021/05/06 07:47:47;0.00;0.00;0.62;0.00;0.00;0.62;1.30;1.00;;;22.70;21.30;;;;;;2261062;61;20359;-62
2021/05/06 07:50:17;0.00;0.00;0.62;0.00;0.00;0.62;1.73;1.30;;;22.70;21.40;;;;;;2261360;61;20438;-61
2021/05/06 07:52:46;0.00;0.00;0.62;0.00;0.00;0.62;1.60;1.00;;;22.70;21.40;;;;;;2261135;61;20371;-62
2021/05/06 07:55:13;0.00;0.00;0.62;0.00;0.00;0.62;1.63;1.30;;;22.70;21.40;;;;;;2260772;61;20390;-61
2021/05/06 07:57:40;0.00;0.00;0.62;0.00;0.00;0.62;1.57;1.13;;;22.70;21.40;;;;;;2261322;61;20354;-61
2021/05/06 08:00:09;0.00;0.00;0.62;0.00;0.00;0.62;1.77;0.90;;;22.70;21.40;;;;;;2260963;61;20351;-62
2021/05/06 08:02:41;0.00;0.00;0.62;0.00;0.00;0.62;1.40;0.90;;;22.70;21.50;;;;;;2261206;61;20652;-61
2021/05/06 08:05:08;0.00;0.00;0.62;0.00;0.00;0.62;1.20;0.80;;;22.70;21.40;;;;;;2261132;61;20372;-62
2021/05/06 08:07:36;0.00;0.00;0.62;0.00;0.00;0.62;1.40;1.00;;;22.70;21.40;;;;;;2261166;61;20362;-62
2021/05/06 08:10:04;0.00;0.00;0.62;0.00;0.00;0.62;1.27;0.90;;;22.70;21.40;;;;;;2261099;61;20438;-62
2021/05/06 08:12:30;0.00;0.00;0.62;0.00;0.00;0.62;1.60;1.10;;;22.70;21.40;;;;;;2261184;61;20586;-62
2021/05/06 08:14:57;0.00;0.00;0.62;0.00;0.00;0.62;1.30;0.90;;;22.70;21.50;;;;;;2260784;61;20383;-61
2021/05/06 08:17:24;0.00;0.00;0.62;0.00;0.00;0.62;1.80;1.23;;;22.70;21.50;;;;;;2261224;61;20630;-61
2021/05/06 08:19:50;0.00;0.00;0.62;0.00;0.00;0.62;1.50;1.20;;;22.70;21.50;;;;;;2261930;61;20710;-61
2021/05/06 08:22:17;0.00;0.00;0.62;0.00;0.00;0.62;1.30;0.90;;;22.80;21.50;;;;;;2261688;61;20379;-62
2021/05/06 08:24:44;0.00;0.00;0.62;0.00;0.00;0.62;1.30;0.90;;;22.80;21.50;;;;;;2261704;61;20387;-62
2021/05/06 08:27:11;0.00;0.00;0.62;0.00;0.00;0.62;1.73;1.13;;;22.80;21.50;;;;;;2261755;61;20418;-61
2021/05/06 08:29:38;0.00;0.00;0.62;0.00;0.00;0.62;2.07;0.90;;;22.80;21.50;;;;;;2261748;61;20394;-61
2021/05/06 08:32:05;0.00;0.00;0.62;0.00;0.00;0.62;1.40;1.00;;;22.80;21.50;;;;;;2261685;61;20722;-61
2021/05/06 08:34:32;0.00;0.00;0.62;0.00;0.00;0.62;2.03;1.00;;;22.80;21.50;;;;;;2261474;61;20486;-62
2021/05/06 08:36:58;0.00;0.00;0.62;0.00;0.00;0.62;1.93;1.27;;;22.90;21.60;;;;;;2261792;61;20352;-62
2021/05/06 08:39:25;0.00;0.00;0.62;0.00;0.00;0.62;1.40;1.00;;;22.80;21.60;;;;;;2261728;61;20441;-62
2021/05/06 08:41:54;0.00;0.00;0.62;0.00;0.00;0.62;1.40;0.80;;;22.90;21.60;;;;;;2261710;61;20646;-62
2021/05/06 08:44:29;0.00;0.00;0.62;0.00;0.00;0.62;1.50;0.90;;;22.90;21.70;;;;;;2261564;61;20634;-62
2021/05/06 08:47:07;0.00;0.00;0.62;0.00;0.00;0.62;1.50;1.10;;;22.90;21.70;;;;;;2261764;61;20366;-61
2021/05/06 08:49:36;0.00;0.00;0.62;0.00;0.00;0.62;1.60;1.10;;;22.90;21.70;;;;;;2261716;61;20989;-61
2021/05/06 08:52:06;0.00;0.00;0.62;0.00;0.00;0.62;2.57;1.00;;;22.90;21.70;;;;;;2261702;61;20423;-61
2021/05/06 08:54:33;0.00;0.00;0.62;0.00;0.00;0.62;1.60;1.13;;;22.90;21.70;;;;;;2261016;61;20532;-62
2021/05/06 08:57:00;0.00;0.00;0.62;0.00;0.00;0.62;1.50;1.00;;;22.90;21.70;;;;;;2261675;61;20380;-60
2021/05/06 08:59:28;0.00;0.00;0.62;0.00;0.00;0.62;1.70;1.17;;;23.00;21.80;;;;;;2261836;61;20371;-61
2021/05/06 09:01:56;0.00;0.00;0.62;0.00;0.00;0.62;1.60;1.20;;;23.00;21.80;;;;;;2261652;61;20405;-61
2021/05/06 09:04:23;0.00;0.00;0.62;0.00;0.00;0.62;1.77;1.23;;;23.00;21.70;;;;;;2257922;61;20351;-61
2021/05/06 09:06:57;0.00;0.00;0.62;0.00;0.00;0.62;2.37;1.10;;;23.00;21.70;;;;;;2261706;61;20419;-61
2021/05/06 09:09:26;0.00;0.00;0.62;0.00;0.00;0.62;1.70;1.20;;;23.00;21.70;;;;;;2261609;61;20359;-60
2021/05/06 09:11:55;0.00;0.00;0.62;0.00;0.00;0.62;1.63;1.23;;;23.00;21.60;;;;;;2261495;61;20404;-60
2021/05/06 09:14:37;0.00;0.00;0.62;0.00;0.00;0.62;2.57;1.37;;;23.00;21.60;;;;;;2261451;61;20383;-62
2021/05/06 09:17:04;0.00;0.00;0.62;0.00;0.00;0.62;1.77;1.30;;;23.00;21.60;;;;;;2261508;61;20360;-61
2021/05/06 09:19:31;0.00;0.00;0.62;0.00;0.00;0.62;1.90;1.57;;;23.00;21.60;;;;;;2261604;61;20363;-61
2021/05/06 09:21:58;0.00;0.00;0.62;0.00;0.00;0.62;2.00;1.47;;;23.00;21.60;;;;;;2261748;61;20478;-61
2021/05/06 09:24:35;0.00;0.00;0.62;0.00;0.00;0.62;2.40;1.30;;;23.10;21.60;;;;;;2257688;61;20769;-61
2021/05/06 09:27:04;0.00;0.00;0.62;0.00;0.00;0.62;1.50;1.10;;;23.10;21.60;;;;;;2261717;61;20358;-61
2021/05/06 09:29:36;0.00;0.00;0.62;0.00;0.00;0.62;1.80;1.20;;;23.10;21.60;;;;;;2261623;61;20359;-62
2021/05/06 09:32:12;0.00;0.00;0.62;0.00;0.00;0.62;1.87;1.50;;;23.10;21.50;;;;;;2261427;61;20356;-61
2021/05/06 09:34:40;0.00;0.00;0.62;0.00;0.00;0.62;1.60;1.40;;;23.10;21.50;;;;;;2261393;61;20398;-62
2021/05/06 09:37:08;0.00;0.00;0.62;0.00;0.00;0.62;1.90;1.23;;;23.10;21.50;;;;;;2261705;61;20363;-61
2021/05/06 09:39:36;0.00;0.00;0.62;0.00;0.00;0.62;1.50;1.10;;;23.20;21.60;;;;;;2261371;61;20359;-61
2021/05/06 09:42:08;0.00;0.00;0.62;0.00;0.00;0.62;1.63;1.47;;;23.20;21.60;;;;;;2261531;61;20421;-61
2021/05/06 09:44:54;0.00;0.00;0.62;0.00;0.00;0.62;2.03;1.37;;;23.20;21.60;;;;;;2261494;61;20351;-60
2021/05/06 09:47:20;0.00;0.00;0.62;0.00;0.00;0.62;1.70;1.20;;;23.20;21.60;;;;;;2261092;61;20363;-61
2021/05/06 09:49:49;0.00;0.00;0.62;0.00;0.00;0.62;2.07;1.60;;;23.20;21.50;;;;;;2261922;61;20366;-61
2021/05/06 09:52:15;0.00;0.00;0.62;0.00;0.00;0.62;2.77;1.90;;;23.30;21.60;;;;;;2261522;61;20587;-61
2021/05/06 09:54:50;0.00;0.00;0.62;0.00;0.00;0.62;1.80;1.30;;;23.30;21.60;;;;;;2260884;61;20398;-61
2021/05/06 09:57:29;0.00;0.00;0.62;0.00;0.00;0.62;1.70;1.40;;;23.30;22.20;;;;;;2261926;61;20362;-60
2021/05/06 10:00:16;0.00;0.00;0.62;0.00;0.00;0.62;1.73;1.20;;;23.30;21.60;;;;;;2261514;61;20382;-61
2021/05/06 10:02:42;0.00;0.00;0.62;0.00;0.00;0.62;1.57;1.10;;;23.30;21.60;;;;;;2261156;61;20370;-61
2021/05/06 10:05:13;0.00;0.00;0.62;0.00;0.00;0.62;1.77;1.47;;;23.30;21.60;;;;;;2261703;61;20375;-61
2021/05/06 10:07:52;0.00;0.00;0.62;0.00;0.00;0.62;1.83;1.40;;;23.40;21.60;;;;;;2261602;61;20374;-61
2021/05/06 10:10:18;0.00;0.00;0.62;0.00;0.00;0.62;1.70;1.40;;;23.40;21.60;;;;;;2261485;61;20650;-61
2021/05/06 10:12:45;0.00;0.00;0.62;0.00;0.00;0.62;1.50;1.17;;;23.40;21.60;;;;;;2261803;61;20444;-62
2021/05/06 10:15:14;0.00;0.00;0.62;0.00;0.00;0.62;1.87;1.33;;;23.40;21.60;;;;;;2261129;61;20383;-60
2021/05/06 10:17:41;0.00;0.00;0.62;0.00;0.00;0.62;1.80;1.37;;;23.50;21.60;;;;;;2261270;61;20431;-60
2021/05/06 10:20:09;0.00;0.00;0.62;0.00;0.00;0.62;1.80;1.37;;;23.50;21.60;;;;;;2261813;61;20360;-61
2021/05/06 10:22:36;0.00;0.00;0.62;0.00;0.00;0.62;3.43;1.90;;;23.50;21.60;;;;;;2261342;61;20367;-60
2021/05/06 10:25:05;0.00;0.00;0.62;0.00;0.00;0.62;1.70;1.40;;;23.50;21.60;;;;;;2261208;61;20367;-61
2021/05/06 10:27:32;0.00;0.00;0.62;0.00;0.00;0.62;2.00;1.50;;;23.60;21.60;;;;;;2261851;61;20363;-61
2021/05/06 10:30:02;0.00;0.00;0.62;0.00;0.00;0.62;2.20;1.70;;;23.60;21.60;;;;;;2261279;61;20745;-60
2021/05/06 10:32:32;0.00;0.00;0.62;0.00;0.00;0.62;1.80;1.30;;;23.60;21.50;;;;;;2261435;61;20360;-60
2021/05/06 10:35:03;0.00;0.00;0.62;0.00;0.00;0.62;1.30;1.10;;;23.60;21.50;;;;;;2261091;61;20625;-60
2021/05/06 10:37:32;0.00;0.00;0.62;0.00;0.00;0.62;1.70;1.27;;;23.70;21.60;;;;;;2261173;61;20714;-60
2021/05/06 10:40:00;0.00;0.00;0.62;0.00;0.00;0.62;1.60;1.20;;;23.70;21.60;;;;;;2261325;61;20715;-61
2021/05/06 10:42:35;0.00;0.00;0.62;0.00;0.00;0.62;2.00;1.50;;;23.70;21.50;;;;;;2261652;61;20582;-61
2021/05/06 10:45:37;0.00;0.00;0.62;0.00;0.00;0.62;1.90;1.50;;;23.70;21.50;;;;;;2261161;61;20375;-61
2021/05/06 10:48:05;0.00;0.00;0.62;0.00;0.00;0.62;1.60;1.17;;;23.70;21.50;;;;;;2240657;62;20456;-61
2021/05/06 10:50:38;0.00;0.00;0.62;0.00;0.00;0.62;1.53;1.20;;;23.80;21.50;;;;;;2240595;62;20619;-62
2021/05/06 10:53:07;0.00;0.00;0.62;0.00;0.00;0.62;1.60;1.40;;;23.80;21.50;;;;;;2251470;61;20372;-60
2021/05/06 10:55:46;0.00;0.00;0.62;0.00;0.00;0.62;1.83;1.33;;;23.90;21.50;;;;;;2261034;61;20472;-62
2021/05/06 10:58:42;0.00;0.00;0.62;0.00;0.00;0.62;1.67;1.30;;;23.90;21.50;;;;;;2261254;61;20355;-62
2021/05/06 11:01:39;0.00;0.00;0.62;0.00;0.00;0.62;2.10;1.50;;;23.90;21.50;;;;;;2240631;62;20360;-59
2021/05/06 11:04:09;0.00;0.00;0.62;0.00;0.00;0.62;2.23;1.50;;;24.00;21.60;;;;;;2261274;61;20371;-62
2021/05/06 11:06:40;0.00;0.00;0.62;0.00;0.00;0.62;1.50;1.13;;;24.00;21.60;;;;;;2261328;61;20385;-60
2021/05/06 11:09:56;0.00;0.00;0.62;0.00;0.00;0.62;1.70;1.20;;;24.00;21.60;;;;;;2260971;61;20433;-62
2021/05/06 11:12:29;0.00;0.00;0.62;0.00;0.00;0.62;2.13;1.63;;;24.00;21.60;;;;;;2261191;61;20355;-60
2021/05/06 11:15:33;0.00;0.00;0.62;0.00;0.00;0.62;1.93;1.20;;;24.10;21.60;;;;;;2261019;61;20433;-63
2021/05/06 11:18:06;0.00;0.00;0.62;0.00;0.00;0.62;1.93;1.63;;;24.10;21.60;;;;;;2260829;61;20359;-62
2021/05/06 11:20:52;0.00;0.00;0.62;0.00;0.00;0.62;1.67;1.20;;;24.10;21.60;;;;;;2261301;61;20631;-61
2021/05/06 11:23:31;0.00;0.00;0.62;0.00;0.00;0.62;2.67;1.50;;;24.20;21.70;;;;;;2261283;61;20363;-61
2021/05/06 11:26:11;0.00;0.00;0.62;0.00;0.00;0.62;1.87;1.27;;;24.20;21.70;;;;;;2261410;61;20372;-62
2021/05/06 11:28:43;0.00;0.00;0.62;0.00;0.00;0.62;1.80;1.20;;;24.20;21.70;;;;;;2261385;61;20359;-61
2021/05/06 11:31:10;0.00;0.00;0.62;0.00;0.00;0.62;1.80;1.30;;;24.20;21.70;;;;;;2260893;61;20355;-62
2021/05/06 11:33:37;0.00;0.00;0.62;0.00;0.00;0.62;1.80;1.23;;;24.30;21.80;;;;;;2261343;61;20356;-62
2021/05/06 11:36:08;0.00;0.00;0.62;0.00;0.00;0.62;1.53;1.17;;;24.30;21.80;;;;;;2261259;61;20431;-61
2021/05/06 11:38:51;0.00;0.00;0.62;0.00;0.00;0.62;1.87;1.20;;;24.30;21.80;;;;;;2260871;61;20776;-61
2021/05/06 11:41:27;0.00;0.00;0.62;0.00;0.00;0.62;1.60;1.07;;;24.40;21.80;;;;;;2261613;61;20356;-62
2021/05/06 11:43:55;0.00;0.00;0.62;0.00;0.00;0.62;1.53;1.13;;;24.40;21.80;;;;;;2261435;61;20437;-62
2021/05/06 11:46:25;0.00;0.00;0.62;0.00;0.00;0.62;1.50;1.10;;;24.40;21.80;;;;;;2260813;61;20375;-61
2021/05/06 11:48:54;0.00;0.00;0.62;0.00;0.00;0.62;1.60;1.30;;;24.50;21.90;;;;;;2261632;61;20722;-62
2021/05/06 11:51:29;0.00;0.00;0.62;0.00;0.00;0.62;2.07;1.37;;;24.50;21.80;;;;;;2260927;61;20359;-59
2021/05/06 11:54:15;0.00;0.00;0.62;0.00;0.00;0.62;1.67;1.10;;;24.50;21.80;;;;;;2261661;61;20358;-62
2021/05/06 11:56:49;0.00;0.00;0.62;0.00;0.00;0.62;1.70;1.10;;;24.60;21.80;;;;;;2261410;61;20375;-63
2021/05/06 11:59:18;0.00;0.00;0.62;0.00;0.00;0.62;1.40;1.20;;;24.60;21.70;;;;;;2261804;61;20359;-62
2021/05/06 12:01:45;0.00;0.00;0.62;0.00;0.00;0.62;1.60;1.33;;;24.70;21.80;;;;;;2261833;61;20630;-61
2021/05/06 12:04:22;0.00;0.00;0.62;0.00;0.00;0.62;1.70;1.13;;;24.70;21.70;;;;;;2261884;61;21015;-63
2021/05/06 12:06:50;0.00;0.00;0.62;0.00;0.00;0.62;1.30;1.00;;;24.70;21.70;;;;;;2261857;61;20589;-61
2021/05/06 12:09:31;0.00;0.00;0.62;0.00;0.00;0.62;1.77;1.17;;;24.70;21.70;;;;;;2261815;61;20360;-59
2021/05/06 12:11:58;0.00;0.00;0.62;0.00;0.00;0.62;1.80;1.13;;;24.70;21.70;;;;;;2261824;61;20701;-60
2021/05/06 12:14:32;0.00;0.00;0.62;0.00;0.00;0.62;1.83;1.10;;;24.70;21.60;;;;;;2261322;61;20375;-61
2021/05/06 12:16:59;0.00;0.00;0.62;0.00;0.00;0.62;1.50;1.00;;;24.80;21.60;;;;;;2261897;61;20359;-62
2021/05/06 12:19:25;0.00;0.00;0.62;0.00;0.00;0.62;1.47;0.90;;;24.80;21.60;;;;;;2261965;61;20387;-61
2021/05/06 12:21:55;0.00;0.00;0.62;0.00;0.00;0.62;1.50;1.07;;;24.80;21.60;;;;;;2261669;61;20584;-59
2021/05/06 12:24:32;0.00;0.00;0.62;0.00;0.00;0.62;1.50;1.10;;;24.80;22.10;;;;;;2261814;61;20586;-61
2021/05/06 12:27:15;0.00;0.00;0.62;0.00;0.00;0.62;1.53;1.23;;;24.80;21.50;;;;;;2258218;61;20580;-59
2021/05/06 12:29:42;0.00;0.00;0.62;0.00;0.00;0.62;1.70;1.10;;;24.80;21.50;;;;;;2261712;61;20351;-59
2021/05/06 12:32:16;0.00;0.00;0.62;0.00;0.00;0.62;1.50;1.00;;;24.80;21.50;;;;;;2262010;61;20730;-60
2021/05/06 12:34:43;0.00;0.00;0.62;0.00;0.00;0.62;1.73;1.07;;;24.80;21.50;;;;;;2261544;61;20379;-60
2021/05/06 12:37:11;0.00;0.00;0.62;0.00;0.00;0.62;1.60;1.10;;;24.80;21.50;;;;;;2261567;61;20370;-61
2021/05/06 12:39:40;0.00;0.00;0.62;0.00;0.00;0.62;1.40;0.97;;;24.80;21.50;;;;;;2261941;61;20354;-61
2021/05/06 12:42:08;0.00;0.00;0.62;0.00;0.00;0.62;1.57;1.10;;;24.90;21.60;;;;;;2261885;61;20579;-60
2021/05/06 12:44:43;0.00;0.00;0.62;0.00;0.00;0.62;2.17;1.30;;;24.90;21.60;;;;;;2261501;61;20395;-62
2021/05/06 12:47:19;0.00;0.00;0.62;0.00;0.00;0.62;1.40;1.03;;;25.00;21.70;;;;;;2261959;61;20355;-62
2021/05/06 12:49:47;0.00;0.00;0.62;0.00;0.00;0.62;1.47;0.97;;;25.00;21.60;;;;;;2261692;61;20378;-62
2021/05/06 12:52:35;0.00;0.00;0.62;0.00;0.00;0.62;1.40;1.00;;;25.00;21.70;;;;;;2261446;61;20410;-61
2021/05/06 12:55:16;0.00;0.00;0.62;0.00;0.00;0.62;1.60;1.10;;;25.00;21.60;;;;;;2261940;61;20391;-62
2021/05/06 12:57:44;0.00;0.00;0.62;0.00;0.00;0.62;1.47;1.00;;;25.10;21.70;;;;;;2261771;61;20703;-62
2021/05/06 13:00:23;0.00;0.00;0.62;0.00;0.00;0.62;1.50;1.23;;;25.10;21.70;;;;;;2261442;61;20413;-60
2021/05/06 13:02:59;0.00;0.00;0.62;0.00;0.00;0.62;1.40;0.90;;;25.10;21.70;;;;;;2262055;61;20356;-62
2021/05/06 13:05:34;0.00;0.00;0.62;0.00;0.00;0.62;1.40;1.00;;;25.20;21.60;;;;;;2261444;61;20600;-62
2021/05/06 13:08:04;0.00;0.00;0.62;0.00;0.00;0.62;1.40;0.90;;;25.20;21.60;;;;;;2258196;61;20370;-62
2021/05/06 13:10:33;0.00;0.00;0.62;0.00;0.00;0.62;1.53;1.20;;;25.20;21.50;;;;;;2261610;61;20458;-62
2021/05/06 13:13:01;0.00;0.00;0.62;0.00;0.00;0.62;1.20;0.90;;;25.30;21.50;;;;;;2261458;61;20355;-62
2021/05/06 13:15:29;0.00;0.00;0.62;0.00;0.00;0.62;1.30;1.00;;;25.30;21.50;;;;;;2261545;61;20653;-62
2021/05/06 13:17:57;0.00;0.00;0.62;0.00;0.00;0.62;1.90;1.10;;;25.40;21.50;;;;;;2261636;61;20356;-61
2021/05/06 13:20:27;0.00;0.00;0.62;0.00;0.00;0.62;1.40;1.07;;;25.40;21.50;;;;;;2261505;61;20616;-62
2021/05/06 13:23:03;0.00;0.00;0.62;0.00;0.00;0.62;1.57;1.10;;;25.50;21.50;;;;;;2261769;61;20474;-62